KIRS/IRS METAR and TAF weather

Enter ICAO airport designator
Station Type Date Time Source
KIRS METAR 2021/07/26 16:55 UTC NOAA

KIRS 261655Z AUTO 05005KT 10SM CLR 30/14 A3004 RMK AO2 T02950136


Station Type Date Time Source
KIRS Decoded METAR 2021/07/26 16:55 UTC NOAA

Sturgis, Kirsch Municipal Airport, MI, United States (KIRS) 41-48-46N 085-26-21W
Jul 26, 2021 - 12:55 PM EDT / 2021.07.26 1655 UTC
Wind: from the NE (050 degrees) at 6 MPH (5 KT):0
Visibility: 10 mile(s):0
Sky conditions: clear
Temperature: 85.1 F (29.5 C)
Dew Point: 56.5 F (13.6 C)
Relative Humidity: 37%
Pressure (altimeter): 30.04 in. Hg (1017 hPa)
ob: KIRS 261655Z AUTO 05005KT 10SM CLR 30/14 A3004 RMK AO2 T02950136
cycle: 17

Station Type Date Time Source
KIRS TAF UTC NOAA

Error!

Example: see airport list